createdAt,value
2019-03-01T00:00:06.470Z,40.03
2019-03-01T00:02:35.580Z,40.27
2019-03-01T00:05:30.429Z,38.47
2019-03-01T00:08:14.012Z,39.60
2019-03-01T00:11:05.863Z,39.23
2019-03-01T00:14:04.392Z,40.37
2019-03-01T00:17:05.518Z,41.97
2019-03-01T00:20:15.074Z,38.97
2019-03-01T00:23:17.646Z,40.33
2019-03-01T00:26:11.675Z,41.10
2019-03-01T00:29:27.718Z,41.20
2019-03-01T00:32:32.880Z,40.53
2019-03-01T00:35:35.053Z,40.13
2019-03-01T00:38:34.536Z,38.10
2019-03-01T00:41:39.343Z,39.57
2019-03-01T00:44:30.742Z,41.27
2019-03-01T00:46:59.747Z,39.83
2019-03-01T00:49:30.351Z,35.27
2019-03-01T00:51:59.373Z,39.67
2019-03-01T00:54:28.407Z,39.17
2019-03-01T00:56:57.344Z,38.37
2019-03-01T00:59:26.402Z,37.57
2019-03-01T01:01:55.515Z,39.23
2019-03-01T01:04:24.684Z,40.20
2019-03-01T01:06:53.846Z,39.50
2019-03-01T01:09:23.008Z,39.00
2019-03-01T01:11:52.020Z,40.47
2019-03-01T01:14:21.147Z,37.70
2019-03-01T01:16:50.111Z,39.03
2019-03-01T01:19:19.206Z,40.00
2019-03-01T01:21:48.154Z,39.33
2019-03-01T01:24:17.203Z,40.07
2019-03-01T01:26:46.223Z,36.63
2019-03-01T01:29:15.203Z,38.73
2019-03-01T01:31:44.246Z,38.03
2019-03-01T01:34:13.280Z,37.43
2019-03-01T01:36:42.352Z,38.33
2019-03-01T01:39:11.896Z,39.37
2019-03-01T01:41:40.969Z,38.70
2019-03-01T01:44:10.063Z,36.70
2019-03-01T01:46:39.027Z,37.80
2019-03-01T01:49:08.139Z,38.50
2019-03-01T01:51:37.187Z,38.33
2019-03-01T01:54:06.294Z,35.13
2019-03-01T01:56:35.246Z,36.63
2019-03-01T01:59:04.352Z,36.63
2019-03-01T02:01:33.373Z,35.43
2019-03-01T02:04:02.310Z,36.07
2019-03-01T02:06:31.348Z,36.60
2019-03-01T02:09:00.478Z,35.73
2019-03-01T02:11:29.824Z,35.17
2019-03-01T02:13:58.809Z,34.30
2019-03-01T02:16:27.845Z,35.23
2019-03-01T02:18:57.970Z,33.43
2019-03-01T02:21:27.167Z,32.83
2019-03-01T02:23:56.245Z,32.40
2019-03-01T02:26:25.313Z,32.50
2019-03-01T02:28:54.323Z,30.20
2019-03-01T02:31:23.256Z,32.00
2019-03-01T02:33:52.298Z,30.87
2019-03-01T02:36:21.321Z,31.07
2019-03-01T02:38:50.248Z,29.57
2019-03-01T02:41:19.172Z,30.87
2019-03-01T02:43:48.196Z,29.90
2019-03-01T02:46:17.175Z,28.90
2019-03-01T02:48:46.164Z,28.80
2019-03-01T02:51:15.312Z,29.67
2019-03-01T02:53:44.270Z,28.07
2019-03-01T02:56:13.419Z,27.20
2019-03-01T02:58:42.409Z,28.80
2019-03-01T03:01:11.380Z,27.10
2019-03-01T03:03:40.421Z,27.70
2019-03-01T03:06:23.831Z,27.03
2019-03-01T03:08:52.790Z,28.03
2019-03-01T03:11:21.720Z,27.53
2019-03-01T03:13:50.728Z,26.40
2019-03-01T03:16:20.374Z,27.33
2019-03-01T03:18:49.397Z,26.40
2019-03-01T03:21:18.417Z,27.20
2019-03-01T03:23:47.336Z,26.37
2019-03-01T03:26:16.277Z,24.23
2019-03-01T03:28:45.319Z,26.63
2019-03-01T03:31:14.315Z,26.60
2019-03-01T03:33:43.271Z,23.37
2019-03-01T03:36:12.351Z,22.83
2019-03-01T03:38:41.298Z,23.13
2019-03-01T03:41:10.288Z,21.80
2019-03-01T03:43:39.393Z,20.27
2019-03-01T03:46:08.309Z,19.90
2019-03-01T03:48:37.274Z,19.20
2019-03-01T03:51:06.216Z,18.17
2019-03-01T03:53:35.286Z,18.97
2019-03-01T03:56:04.393Z,18.43
2019-03-01T03:58:33.436Z,17.57
2019-03-01T04:01:02.500Z,21.60
2019-03-01T04:03:31.533Z,18.53
2019-03-01T04:06:00.618Z,17.33
2019-03-01T04:08:29.768Z,17.50
2019-03-01T04:10:58.825Z,16.70
2019-03-01T04:13:27.865Z,16.77
2019-03-01T04:15:56.959Z,15.83
2019-03-01T04:18:25.930Z,15.80
2019-03-01T04:20:54.953Z,15.93
2019-03-01T04:23:24.015Z,16.53
2019-03-01T04:25:52.981Z,15.63
2019-03-01T04:28:21.985Z,15.23
2019-03-01T04:30:50.982Z,15.43
2019-03-01T04:33:20.118Z,16.73
2019-03-01T04:35:49.093Z,15.67
2019-03-01T04:38:18.029Z,15.27
2019-03-01T04:40:46.989Z,15.13
2019-03-01T04:43:16.043Z,15.27
2019-03-01T04:45:44.980Z,14.80
2019-03-01T04:48:13.907Z,14.83
2019-03-01T04:50:42.836Z,15.10
2019-03-01T04:53:11.834Z,14.43
2019-03-01T04:55:40.792Z,14.10
2019-03-01T04:58:09.841Z,13.67
2019-03-01T05:00:38.839Z,13.37
2019-03-01T05:03:07.791Z,14.37
2019-03-01T05:05:36.757Z,13.80
2019-03-01T05:08:05.698Z,14.37
2019-03-01T05:10:34.631Z,13.63
2019-03-01T05:13:03.638Z,13.17
2019-03-01T05:15:32.633Z,15.17
2019-03-01T05:18:01.621Z,14.43
2019-03-01T05:20:31.220Z,12.73
2019-03-01T05:23:00.376Z,14.20
2019-03-01T05:25:29.300Z,14.10
2019-03-01T05:27:58.265Z,13.40
2019-03-01T05:30:27.344Z,13.77
2019-03-01T05:32:56.274Z,13.70
2019-03-01T05:35:25.280Z,13.80
2019-03-01T05:37:56.395Z,14.37
2019-03-01T05:40:25.399Z,13.80
2019-03-01T05:52:07.527Z,16.90
2019-03-01T05:54:36.460Z,16.33
2019-03-01T05:57:05.339Z,16.40
2019-03-01T05:59:34.342Z,16.30
2019-03-01T06:02:27.466Z,16.23
2019-03-01T06:04:59.897Z,14.97
2019-03-01T06:08:15.293Z,15.00
2019-03-01T06:11:13.870Z,15.97
2019-03-01T06:13:56.220Z,16.37
2019-03-01T06:17:11.277Z,15.83
2019-03-01T06:20:17.425Z,15.67
2019-03-01T06:23:32.974Z,16.17
2019-03-01T06:26:38.273Z,18.23
2019-03-01T06:29:26.454Z,17.90
2019-03-01T06:32:22.585Z,19.57
2019-03-01T06:35:05.376Z,19.55
2019-03-01T06:38:38.546Z,17.07
2019-03-01T06:41:37.681Z,18.63
2019-03-01T06:44:30.008Z,45.90
2019-03-01T06:47:14.655Z,32.10
2019-03-01T06:50:45.164Z,18.10
2019-03-01T06:53:14.432Z,16.13
2019-03-01T06:55:47.957Z,18.27
2019-03-01T06:58:25.565Z,18.77
2019-03-01T07:01:19.676Z,21.57
2019-03-01T07:03:56.798Z,18.80
2019-03-01T07:06:25.665Z,24.43
2019-03-01T07:08:54.536Z,34.77
2019-03-01T07:11:23.493Z,27.53
2019-03-01T07:13:52.384Z,21.13
2019-03-01T07:16:21.220Z,35.93
2019-03-01T07:18:50.177Z,27.13
2019-03-01T07:21:19.201Z,23.47
2019-03-01T07:23:48.242Z,20.80
2019-03-01T07:26:17.231Z,15.07
2019-03-01T07:28:46.098Z,19.77
2019-03-01T07:31:14.969Z,17.03
2019-03-01T07:33:43.847Z,18.10
2019-03-01T07:36:12.732Z,17.77
2019-03-01T07:38:41.546Z,24.13
2019-03-01T07:41:10.412Z,30.43
2019-03-01T07:43:39.207Z,21.30
2019-03-01T07:46:08.104Z,22.80
2019-03-01T07:48:37.176Z,23.50
2019-03-01T07:51:06.109Z,25.17
2019-03-01T07:53:36.103Z,23.90
2019-03-01T07:56:05.646Z,18.20
2019-03-01T07:58:34.789Z,20.47
2019-03-01T08:01:03.935Z,20.13
2019-03-01T08:03:32.933Z,19.70
2019-03-01T08:06:01.952Z,23.13
2019-03-01T08:08:30.982Z,24.10
2019-03-01T08:11:00.233Z,26.97
2019-03-01T08:13:29.378Z,26.57
2019-03-01T08:15:58.437Z,24.73
2019-03-01T08:18:27.419Z,19.40
2019-03-01T08:20:57.169Z,15.63
2019-03-01T08:23:26.077Z,16.87
2019-03-01T08:25:55.629Z,17.07
2019-03-01T08:28:36.809Z,15.70
2019-03-01T08:36:22.715Z,17.93
2019-03-01T08:37:59.622Z,15.27
2019-03-01T08:40:28.733Z,15.57
2019-03-01T08:42:57.715Z,16.40
2019-03-01T08:45:29.737Z,13.93
2019-03-01T08:47:58.910Z,13.73
2019-03-01T08:50:28.654Z,12.13
2019-03-01T08:52:57.714Z,14.50
2019-03-01T08:55:26.678Z,13.87
2019-03-01T08:57:59.656Z,14.67
2019-03-01T09:00:28.294Z,16.05
2019-03-01T09:03:56.057Z,15.67
2019-03-01T09:07:55.026Z,14.67
2019-03-01T09:10:32.664Z,13.47
2019-03-01T09:13:03.822Z,20.12
2019-03-01T09:15:36.849Z,14.50
2019-03-01T09:18:05.992Z,17.27
2019-03-01T09:24:11.366Z,14.67
2019-03-01T09:30:03.576Z,22.83
2019-03-01T09:32:33.831Z,13.30
2019-03-01T09:35:26.769Z,18.83
2019-03-01T09:37:55.639Z,18.07
2019-03-01T09:40:41.630Z,17.10
2019-03-01T09:44:46.694Z,13.43
2019-03-01T09:47:56.099Z,16.80
2019-03-01T09:50:24.999Z,12.97
2019-03-01T09:52:55.640Z,12.77
2019-03-01T09:55:24.609Z,15.90
2019-03-01T09:57:53.445Z,17.50
2019-03-01T10:00:23.450Z,13.77
2019-03-01T10:02:52.331Z,14.63
2019-03-01T10:05:21.306Z,13.53
2019-03-01T10:07:50.203Z,13.30
2019-03-01T10:10:21.452Z,14.03
2019-03-01T10:12:50.400Z,13.90
2019-03-01T10:15:19.339Z,17.77
2019-03-01T10:17:48.279Z,14.43
2019-03-01T10:20:17.168Z,15.00
2019-03-01T10:22:45.996Z,13.83
2019-03-01T10:25:15.013Z,16.42
2019-03-01T10:27:44.009Z,13.77
2019-03-01T10:30:18.693Z,12.87
2019-03-01T10:32:47.544Z,12.10
2019-03-01T10:35:16.749Z,17.90
2019-03-01T10:37:45.696Z,12.87
2019-03-01T10:40:16.336Z,12.27
2019-03-01T10:42:45.134Z,11.77
2019-03-01T10:45:16.462Z,11.23
2019-03-01T10:47:45.434Z,11.80
2019-03-01T10:50:14.318Z,11.63
2019-03-01T10:52:43.302Z,11.90
2019-03-01T10:55:14.046Z,8.97
2019-03-01T10:57:42.923Z,11.07
2019-03-01T11:00:22.607Z,10.40
2019-03-01T11:02:51.764Z,12.17
2019-03-01T11:05:20.705Z,9.27
2019-03-01T11:07:50.484Z,13.07
2019-03-01T11:10:24.742Z,11.87
2019-03-01T11:12:53.690Z,10.40
2019-03-01T11:15:22.649Z,14.00
2019-03-01T11:17:51.735Z,10.63
2019-03-01T11:20:20.874Z,14.23
2019-03-01T11:22:49.793Z,14.00
2019-03-01T11:25:19.164Z,11.93
2019-03-01T11:27:48.142Z,11.97
2019-03-01T11:30:19.016Z,11.03
2019-03-01T11:32:47.957Z,12.20
2019-03-01T11:35:17.196Z,10.90
2019-03-01T11:37:46.141Z,15.50
2019-03-01T11:40:18.282Z,11.77
2019-03-01T11:42:51.729Z,10.43
2019-03-01T11:45:20.673Z,10.90
2019-03-01T11:47:49.638Z,11.83
2019-03-01T11:53:10.461Z,12.33
2019-03-01T11:55:39.283Z,12.00
2019-03-01T11:58:08.227Z,13.20
2019-03-01T12:00:37.170Z,13.47
2019-03-01T12:03:06.040Z,14.00
2019-03-01T12:05:35.177Z,12.57
2019-03-01T12:08:04.197Z,13.53
2019-03-01T12:10:33.514Z,23.63
2019-03-01T12:13:02.304Z,11.90
2019-03-01T12:15:31.128Z,10.47
2019-03-01T12:18:00.059Z,10.77
2019-03-01T12:20:29.043Z,10.33
2019-03-01T12:22:57.944Z,11.88
2019-03-01T12:25:26.930Z,10.27
2019-03-01T12:27:55.798Z,8.93
2019-03-01T12:30:24.825Z,10.03
2019-03-01T12:32:53.717Z,9.50
2019-03-01T12:35:22.698Z,12.30
2019-03-01T12:37:51.746Z,13.33
2019-03-01T12:40:22.795Z,14.97
2019-03-01T12:42:51.837Z,12.97
2019-03-01T12:45:20.847Z,11.63
2019-03-01T12:47:49.795Z,13.43
2019-03-01T12:50:18.677Z,10.73
2019-03-01T12:52:49.376Z,9.90
2019-03-01T12:55:19.497Z,8.70
2019-03-01T12:57:48.369Z,11.30
2019-03-01T13:00:22.862Z,11.90
2019-03-01T13:02:51.732Z,10.80
2019-03-01T13:05:20.604Z,12.13
2019-03-01T13:07:49.520Z,12.10
2019-03-01T13:10:20.935Z,11.67
2019-03-01T13:12:49.748Z,11.67
2019-03-01T13:15:18.706Z,12.50
2019-03-01T13:17:49.906Z,13.63
2019-03-01T13:20:18.858Z,16.43
2019-03-01T13:22:47.810Z,19.90
2019-03-01T13:25:16.775Z,21.87
2019-03-01T13:27:48.736Z,24.53
2019-03-01T13:30:18.139Z,27.33
2019-03-01T13:32:46.956Z,26.23
2019-03-01T13:35:16.380Z,27.67
2019-03-01T13:37:45.429Z,27.17
2019-03-01T13:40:33.494Z,26.03
2019-03-01T13:43:23.741Z,30.77
2019-03-01T13:46:11.415Z,30.27
2019-03-01T13:48:40.261Z,27.47
2019-03-01T13:51:28.410Z,27.47
2019-03-01T13:54:16.652Z,31.20
2019-03-01T13:57:12.377Z,30.53
2019-03-01T14:00:01.711Z,30.67
2019-03-01T14:02:49.880Z,29.90
2019-03-01T14:05:38.038Z,32.50
2019-03-01T14:08:26.085Z,29.37
2019-03-01T14:11:15.313Z,29.07
2019-03-01T14:14:04.025Z,32.87
2019-03-01T14:16:52.118Z,27.43
2019-03-01T14:19:33.157Z,31.77
2019-03-01T14:22:14.065Z,31.63
2019-03-01T14:24:55.171Z,29.43
2019-03-01T14:27:35.918Z,29.67
2019-03-01T14:30:17.576Z,31.03
2019-03-01T14:32:58.789Z,30.47
2019-03-01T14:35:39.390Z,30.83
2019-03-01T14:38:20.036Z,28.83
2019-03-01T14:41:01.454Z,22.70
2019-03-01T14:43:42.168Z,32.77
2019-03-01T14:46:23.577Z,36.43
2019-03-01T14:49:04.234Z,39.00
2019-03-01T14:51:46.517Z,46.53
2019-03-01T14:54:33.542Z,45.13
2019-03-01T14:57:26.907Z,45.40
2019-03-01T15:00:25.726Z,40.70
2019-03-01T15:03:17.665Z,35.43
2019-03-01T15:06:06.433Z,43.60
2019-03-01T15:08:56.854Z,43.53
2019-03-01T15:11:45.327Z,41.63
2019-03-01T15:14:34.998Z,44.70
2019-03-01T15:17:23.185Z,41.80
2019-03-01T15:20:04.112Z,38.60
2019-03-01T15:22:45.558Z,43.97
2019-03-01T15:28:09.657Z,49.30
2019-03-01T15:33:21.527Z,50.83
2019-03-01T15:36:09.702Z,50.30
2019-03-01T15:38:57.891Z,47.60
2019-03-01T15:41:46.080Z,51.03
2019-03-01T15:44:34.333Z,47.77
2019-03-01T15:47:23.832Z,50.30
2019-03-01T15:50:12.365Z,47.57
2019-03-01T15:53:00.472Z,48.13
2019-03-01T15:55:48.710Z,38.70
2019-03-01T15:58:50.769Z,45.07
2019-03-01T16:01:26.698Z,43.07
2019-03-01T16:04:14.798Z,45.17
2019-03-01T16:07:02.968Z,43.00
2019-03-01T16:09:51.102Z,43.13
2019-03-01T16:12:39.330Z,42.63
2019-03-01T16:15:27.538Z,34.70
2019-03-01T16:18:15.746Z,39.83
2019-03-01T16:20:56.686Z,35.10
2019-03-01T16:23:37.770Z,36.03
2019-03-01T16:26:18.229Z,31.47
2019-03-01T16:28:59.404Z,32.50
2019-03-01T16:31:39.802Z,30.50
2019-03-01T16:34:20.396Z,31.53
2019-03-01T16:37:00.812Z,26.73
2019-03-01T16:39:41.478Z,28.23
2019-03-01T16:42:22.298Z,23.23
2019-03-01T16:45:03.732Z,25.90
2019-03-01T16:47:44.214Z,23.83
2019-03-01T16:50:24.635Z,28.47
2019-03-01T16:53:05.595Z,24.87
2019-03-01T16:55:46.139Z,27.63
2019-03-01T16:58:28.286Z,28.00
2019-03-01T17:01:09.675Z,28.47
2019-03-01T17:03:52.875Z,27.67
2019-03-01T17:06:33.100Z,29.73
2019-03-01T17:09:15.361Z,26.47
2019-03-01T17:11:56.899Z,28.27
2019-03-01T17:17:19.989Z,29.53
2019-03-01T17:20:02.422Z,25.43
2019-03-01T17:22:44.003Z,22.23
2019-03-01T17:28:07.267Z,29.80
2019-03-01T17:30:50.594Z,29.83
2019-03-01T17:33:31.458Z,27.63
2019-03-01T17:36:12.998Z,25.23
2019-03-01T17:38:54.552Z,24.80
2019-03-01T17:41:35.276Z,27.50
2019-03-01T17:44:16.229Z,24.27
2019-03-01T17:46:57.164Z,23.13
2019-03-01T17:49:37.703Z,17.13
2019-03-01T17:52:06.766Z,15.87
2019-03-01T17:54:57.591Z,12.87
2019-03-01T17:57:44.749Z,15.83
2019-03-01T18:03:30.575Z,11.60
2019-03-01T18:06:18.775Z,11.03
2019-03-01T18:09:06.945Z,8.37
2019-03-01T18:11:55.212Z,9.97
2019-03-01T18:14:44.941Z,8.93
2019-03-01T18:17:36.379Z,12.10
2019-03-01T18:20:25.747Z,13.88
2019-03-01T18:25:37.246Z,10.90
2019-03-01T18:28:06.344Z,9.67
2019-03-01T18:30:56.175Z,9.90
2019-03-01T18:33:44.345Z,11.43
2019-03-01T18:36:32.546Z,9.37
2019-03-01T18:39:20.618Z,9.70
2019-03-01T18:42:08.985Z,10.57
2019-03-01T18:44:37.940Z,9.00
2019-03-01T18:47:27.871Z,9.67
2019-03-01T18:50:17.626Z,9.77
2019-03-01T18:52:49.666Z,9.23
2019-03-01T18:55:36.476Z,10.60
2019-03-01T18:58:05.571Z,9.30
2019-03-01T19:00:54.259Z,8.97
2019-03-01T19:03:42.576Z,11.13
2019-03-01T19:06:12.903Z,11.63
2019-03-01T19:09:01.774Z,11.57
2019-03-01T19:11:49.924Z,10.95
2019-03-01T19:14:39.215Z,11.03
2019-03-01T19:17:27.978Z,10.87
2019-03-01T19:20:17.534Z,11.37
2019-03-01T19:23:06.208Z,12.03
2019-03-01T19:25:57.872Z,11.90
2019-03-01T19:28:44.647Z,11.43
2019-03-01T19:31:33.002Z,12.87
2019-03-01T19:34:02.239Z,11.13
2019-03-01T19:36:50.471Z,13.03
2019-03-01T19:42:45.682Z,14.00
2019-03-01T19:45:33.915Z,13.17
2019-03-01T19:48:22.016Z,12.80
2019-03-01T19:51:10.281Z,12.87
2019-03-01T19:54:01.037Z,13.57
2019-03-01T19:56:48.513Z,14.97
2019-03-01T19:59:36.887Z,14.30
2019-03-01T20:02:27.870Z,13.97
2019-03-01T20:05:15.938Z,15.03
2019-03-01T20:08:04.438Z,14.00
2019-03-01T20:10:53.013Z,14.80
2019-03-01T20:13:41.921Z,14.97
2019-03-01T20:16:11.856Z,13.20
2019-03-01T20:18:41.786Z,13.53
2019-03-01T20:21:11.472Z,15.80
2019-03-01T20:23:40.312Z,16.13
2019-03-01T20:26:09.309Z,15.70
2019-03-01T20:28:38.129Z,14.77
2019-03-01T20:31:07.089Z,15.43
2019-03-01T20:33:36.192Z,15.63
2019-03-01T20:36:05.259Z,16.17
2019-03-01T20:38:37.135Z,15.40
2019-03-01T20:41:05.115Z,16.07
2019-03-01T20:43:34.236Z,16.03
2019-03-01T20:46:03.768Z,15.53
2019-03-01T20:48:34.021Z,15.60
2019-03-01T20:51:03.029Z,15.60
2019-03-01T20:53:32.035Z,17.33
2019-03-01T20:56:00.919Z,16.00
2019-03-01T20:58:30.065Z,17.80
2019-03-01T21:01:01.947Z,15.93
2019-03-01T21:03:30.664Z,16.80
2019-03-01T21:06:01.626Z,15.30
2019-03-01T21:08:30.214Z,17.40
2019-03-01T21:10:59.093Z,19.27
2019-03-01T21:13:27.952Z,19.77
2019-03-01T21:15:56.819Z,17.87
2019-03-01T21:18:25.777Z,16.63
2019-03-01T21:20:54.794Z,38.17
2019-03-01T21:23:23.833Z,41.23
2019-03-01T21:25:55.825Z,25.07
2019-03-01T21:28:24.758Z,42.13
2019-03-01T21:30:55.615Z,18.37
2019-03-01T21:33:27.348Z,16.60
2019-03-01T21:35:54.881Z,17.63
2019-03-01T21:38:23.725Z,20.00
2019-03-01T21:40:52.534Z,18.53
2019-03-01T21:43:21.356Z,21.43
2019-03-01T21:45:50.256Z,19.47
2019-03-01T21:48:22.035Z,22.70
2019-03-01T21:50:51.238Z,19.17
2019-03-01T21:53:20.348Z,15.27
2019-03-01T21:55:49.378Z,16.60
2019-03-01T21:58:18.295Z,19.60
2019-03-01T22:00:47.152Z,19.47
2019-03-01T22:03:16.001Z,16.60
2019-03-01T22:05:45.272Z,16.23
2019-03-01T22:08:15.374Z,16.87
2019-03-01T22:10:44.268Z,16.60
2019-03-01T22:13:13.079Z,17.27
2019-03-01T22:15:42.172Z,15.60
2019-03-01T22:18:10.993Z,18.63
2019-03-01T22:20:41.633Z,15.00
2019-03-01T22:23:15.641Z,13.07
2019-03-01T22:25:41.797Z,16.73
2019-03-01T22:28:10.633Z,14.07
2019-03-01T22:30:39.449Z,15.33
2019-03-01T22:33:08.271Z,15.23
2019-03-01T22:35:40.579Z,19.07
2019-03-01T22:38:08.222Z,18.77
2019-03-01T22:40:37.100Z,18.73
2019-03-01T22:43:05.904Z,20.90
2019-03-01T22:45:35.400Z,24.10
2019-03-01T22:48:04.222Z,24.00
2019-03-01T22:50:34.103Z,21.53
2019-03-01T22:53:06.116Z,22.37
2019-03-01T22:55:36.826Z,23.30
2019-03-01T22:58:05.669Z,25.73
2019-03-01T23:01:12.522Z,32.40
2019-03-01T23:03:42.416Z,23.57
2019-03-01T23:06:11.680Z,28.97
2019-03-01T23:08:41.858Z,24.83
2019-03-01T23:11:10.899Z,31.27
2019-03-01T23:13:39.765Z,31.77
2019-03-01T23:16:08.768Z,28.20
2019-03-01T23:18:40.311Z,28.30
2019-03-01T23:21:08.234Z,26.30
2019-03-01T23:23:37.141Z,24.83
2019-03-01T23:26:06.056Z,27.23
2019-03-01T23:28:35.543Z,27.37
2019-03-01T23:31:04.693Z,26.43
2019-03-01T23:33:33.544Z,23.90
2019-03-01T23:36:02.476Z,22.43
2019-03-01T23:38:31.312Z,25.10
2019-03-01T23:41:00.119Z,24.73
2019-03-01T23:43:30.814Z,23.00
2019-03-01T23:46:00.977Z,42.33
2019-03-01T23:48:29.781Z,23.47
2019-03-01T23:50:58.653Z,20.97
2019-03-01T23:53:27.607Z,24.73
2019-03-01T23:55:56.494Z,20.77
2019-03-01T23:58:25.390Z,21.10
